createdAt,value
2018-05-10T00:02:22.451Z,9.20
2018-05-10T00:04:50.175Z,7.30
2018-05-10T00:07:17.802Z,6.13
2018-05-10T00:09:45.396Z,6.17
2018-05-10T00:12:13.010Z,6.50
2018-05-10T00:14:40.608Z,6.40
2018-05-10T00:17:08.253Z,11.20
2018-05-10T00:19:35.862Z,8.90
2018-05-10T00:22:03.534Z,18.30
2018-05-10T00:24:31.102Z,7.90
2018-05-10T00:26:58.702Z,8.60
2018-05-10T00:29:26.553Z,7.50
2018-05-10T00:31:54.153Z,33.53
2018-05-10T00:34:21.783Z,10.30
2018-05-10T00:36:49.379Z,9.90
2018-05-10T00:39:16.970Z,8.40
2018-05-10T00:41:44.591Z,10.60
2018-05-10T00:44:12.191Z,13.13
2018-05-10T00:46:39.808Z,9.07
2018-05-10T00:49:07.405Z,7.77
2018-05-10T00:51:35.038Z,6.90
2018-05-10T00:54:02.629Z,7.67
2018-05-10T00:56:30.242Z,10.77
2018-05-10T00:58:57.860Z,7.57
2018-05-10T01:01:25.470Z,15.00
2018-05-10T01:03:53.222Z,101.60
2018-05-10T01:06:20.838Z,58.43
2018-05-10T01:08:48.429Z,31.23
2018-05-10T01:11:16.055Z,13.97
2018-05-10T01:13:43.656Z,56.37
2018-05-10T01:16:11.277Z,10.87
2018-05-10T01:18:38.867Z,9.90
2018-05-10T01:21:06.486Z,7.20
2018-05-10T01:23:34.083Z,9.80
2018-05-10T01:26:01.730Z,6.80
2018-05-10T01:28:29.326Z,7.50
2018-05-10T01:30:56.927Z,35.97
2018-05-10T01:33:24.546Z,19.40
2018-05-10T01:36:03.830Z,22.60
2018-05-10T01:38:31.614Z,17.17
2018-05-10T01:40:59.208Z,7.50
2018-05-10T01:43:26.831Z,9.63
2018-05-10T01:45:54.423Z,9.60
2018-05-10T01:48:22.019Z,11.00
2018-05-10T01:50:49.638Z,12.50
2018-05-10T01:53:17.243Z,17.40
2018-05-10T01:55:45.034Z,23.60
2018-05-10T01:58:12.638Z,11.53
2018-05-10T02:00:40.588Z,8.40
2018-05-10T02:03:08.182Z,14.07
2018-05-10T02:05:35.778Z,13.33
2018-05-10T02:08:03.401Z,19.20
2018-05-10T02:10:31.051Z,36.70
2018-05-10T02:12:58.684Z,13.80
2018-05-10T02:15:26.291Z,23.53
2018-05-10T02:17:53.929Z,13.40
2018-05-10T02:20:21.631Z,8.57
2018-05-10T02:22:49.218Z,6.77
2018-05-10T02:25:16.830Z,7.70
2018-05-10T02:27:44.431Z,10.10
2018-05-10T02:30:12.053Z,9.90
2018-05-10T02:32:39.642Z,6.33
2018-05-10T02:35:07.376Z,6.20
2018-05-10T02:37:35.067Z,6.50
2018-05-10T02:40:02.694Z,6.90
2018-05-10T02:42:30.318Z,8.17
2018-05-10T02:44:57.941Z,7.10
2018-05-10T02:47:25.566Z,11.00
2018-05-10T02:49:53.167Z,17.83
2018-05-10T02:52:21.238Z,6.67
2018-05-10T02:54:48.902Z,6.13
2018-05-10T02:57:16.505Z,7.33
2018-05-10T02:59:44.130Z,6.87
2018-05-10T03:02:11.724Z,7.03
2018-05-10T03:04:39.338Z,9.43
2018-05-10T03:07:06.945Z,49.73
2018-05-10T03:09:34.588Z,63.07
2018-05-10T03:12:02.236Z,23.33
2018-05-10T03:14:29.832Z,8.27
2018-05-10T03:16:57.452Z,6.37
2018-05-10T03:19:25.042Z,6.20
2018-05-10T03:21:52.662Z,6.20
2018-05-10T03:24:20.271Z,6.03
2018-05-10T03:26:48.103Z,7.23
2018-05-10T03:29:15.702Z,7.03
2018-05-10T03:31:43.310Z,5.90
2018-05-10T03:34:10.943Z,6.80
2018-05-10T03:36:38.560Z,7.33
2018-05-10T03:39:06.204Z,6.67
2018-05-10T03:41:33.806Z,7.10
2018-05-10T03:44:01.566Z,6.80
2018-05-10T03:46:29.186Z,6.80
2018-05-10T03:48:56.769Z,6.30
2018-05-10T03:51:24.428Z,5.93
2018-05-10T03:53:52.016Z,6.77
2018-05-10T03:56:19.634Z,7.03
2018-05-10T03:58:47.230Z,6.80
2018-05-10T04:01:15.070Z,6.90
2018-05-10T04:03:54.291Z,7.30
2018-05-10T04:06:33.949Z,8.23
2018-05-10T04:09:15.036Z,7.83
2018-05-10T04:11:42.791Z,8.27
2018-05-10T04:14:10.378Z,7.73
2018-05-10T04:16:37.967Z,7.63
2018-05-10T04:19:05.596Z,6.30
2018-05-10T04:21:33.215Z,6.50
2018-05-10T04:24:00.826Z,6.73
2018-05-10T04:26:28.428Z,6.20
2018-05-10T04:28:56.386Z,6.40
2018-05-10T04:31:23.974Z,6.20
2018-05-10T04:33:51.557Z,6.60
2018-05-10T04:36:19.172Z,6.10
2018-05-10T04:38:47.194Z,5.87
2018-05-10T04:41:14.802Z,6.50
2018-05-10T04:43:42.392Z,5.67
2018-05-10T04:46:10.348Z,5.70
2018-05-10T04:48:37.942Z,5.67
2018-05-10T04:51:05.534Z,5.40
2018-05-10T04:53:33.163Z,5.80
2018-05-10T04:56:00.758Z,5.83
2018-05-10T04:58:28.371Z,6.40
2018-05-10T05:00:55.980Z,6.20
2018-05-10T05:03:24.208Z,6.00
2018-05-10T05:05:52.639Z,6.50
2018-05-10T05:08:20.230Z,5.77
2018-05-10T05:10:47.843Z,5.90
2018-05-10T05:13:15.448Z,5.60
2018-05-10T05:15:43.066Z,5.70
2018-05-10T05:18:10.656Z,6.77
2018-05-10T05:20:38.537Z,5.70
2018-05-10T05:23:06.134Z,6.07
2018-05-10T05:25:33.727Z,6.30
2018-05-10T05:28:01.339Z,6.10
2018-05-10T05:30:28.932Z,5.60
2018-05-10T05:32:56.586Z,6.30
2018-05-10T05:35:24.184Z,6.47
2018-05-10T05:37:51.781Z,7.70
2018-05-10T05:40:19.399Z,6.50
2018-05-10T05:42:46.990Z,7.73
2018-05-10T05:45:14.898Z,6.70
2018-05-10T05:47:42.488Z,5.90
2018-05-10T05:50:10.073Z,5.50
2018-05-10T05:52:37.691Z,7.03
2018-05-10T05:55:05.357Z,6.93
2018-05-10T05:57:32.942Z,6.77
2018-05-10T06:00:00.531Z,6.50
2018-05-10T06:02:28.332Z,6.23
2018-05-10T06:04:55.928Z,5.70
2018-05-10T06:07:23.525Z,6.70
2018-05-10T06:09:51.159Z,6.40
2018-05-10T06:12:18.758Z,7.20
2018-05-10T06:14:46.367Z,7.43
2018-05-10T06:17:13.968Z,6.10
2018-05-10T06:19:41.857Z,7.57
2018-05-10T06:22:09.446Z,7.67
2018-05-10T06:24:37.036Z,7.20
2018-05-10T06:27:04.649Z,6.23
2018-05-10T06:29:32.244Z,7.23
2018-05-10T06:31:59.964Z,6.67
2018-05-10T06:34:27.562Z,6.70
2018-05-10T06:36:55.304Z,8.70
2018-05-10T06:39:22.899Z,7.87
2018-05-10T06:41:50.487Z,7.30
2018-05-10T06:44:18.099Z,7.00
2018-05-10T06:46:46.666Z,6.83
2018-05-10T06:49:14.300Z,6.93
2018-05-10T06:51:41.897Z,7.00
2018-05-10T06:54:09.534Z,6.33
2018-05-10T06:56:37.128Z,6.50
2018-05-10T06:59:04.727Z,6.57
2018-05-10T07:01:32.353Z,7.40
2018-05-10T07:03:59.962Z,6.23
2018-05-10T07:06:27.581Z,6.40
2018-05-10T07:08:55.175Z,6.20
2018-05-10T07:11:23.095Z,6.70
2018-05-10T07:13:50.688Z,7.13
2018-05-10T07:16:18.290Z,7.63
2018-05-10T07:18:45.926Z,7.37
2018-05-10T07:21:13.523Z,6.77
2018-05-10T07:23:41.147Z,6.50
2018-05-10T07:26:08.742Z,6.80
2018-05-10T07:28:36.630Z,7.87
2018-05-10T07:31:04.218Z,6.90
2018-05-10T07:33:31.830Z,7.47
2018-05-10T07:35:59.461Z,7.07
2018-05-10T07:38:27.054Z,6.23
2018-05-10T07:40:54.667Z,6.10
2018-05-10T07:43:22.265Z,7.00
2018-05-10T07:45:50.059Z,6.67
2018-05-10T07:48:17.656Z,6.63
2018-05-10T07:50:45.289Z,6.20
2018-05-10T07:53:12.954Z,6.70
2018-05-10T07:55:40.505Z,6.50
2018-05-10T07:58:08.126Z,6.33
2018-05-10T08:00:35.767Z,6.57
2018-05-10T08:03:03.405Z,5.87
2018-05-10T08:05:31.023Z,6.33
2018-05-10T08:07:58.631Z,6.70
2018-05-10T08:10:26.241Z,6.57
2018-05-10T08:12:53.831Z,6.13
2018-05-10T08:15:22.289Z,5.73
2018-05-10T08:17:49.986Z,5.70
2018-05-10T08:20:17.849Z,5.63
2018-05-10T08:22:45.711Z,6.10
2018-05-10T08:25:13.300Z,5.67
2018-05-10T08:27:46.740Z,5.33
2018-05-10T08:30:14.354Z,5.77
2018-05-10T08:32:41.963Z,5.30
2018-05-10T08:35:09.543Z,5.43
2018-05-10T08:37:37.319Z,4.53
2018-05-10T08:40:04.912Z,5.47
2018-05-10T08:42:32.523Z,4.70
2018-05-10T08:45:00.193Z,5.00
2018-05-10T08:47:27.754Z,5.00
2018-05-10T08:49:55.362Z,5.50
2018-05-10T08:52:22.987Z,5.27
2018-05-10T08:54:50.606Z,5.77
2018-05-10T08:57:18.749Z,4.70
2018-05-10T08:59:46.357Z,5.90
2018-05-10T09:02:13.970Z,4.10
2018-05-10T09:04:41.558Z,5.30
2018-05-10T09:07:09.169Z,5.83
2018-05-10T09:09:36.771Z,5.10
2018-05-10T09:12:04.532Z,4.70
2018-05-10T09:14:32.119Z,3.90
2018-05-10T09:16:59.706Z,4.43
2018-05-10T09:19:27.403Z,4.43
2018-05-10T09:21:54.983Z,4.30
2018-05-10T09:24:22.719Z,3.40
2018-05-10T09:26:50.316Z,3.60
2018-05-10T09:29:18.003Z,4.07
2018-05-10T09:31:45.590Z,3.63
2018-05-10T09:34:13.215Z,3.63
2018-05-10T09:36:40.873Z,3.50
2018-05-10T09:39:08.417Z,3.20
2018-05-10T09:41:36.036Z,3.10
2018-05-10T09:44:03.633Z,3.03
2018-05-10T09:46:31.244Z,2.87
2018-05-10T09:48:58.839Z,2.60
2018-05-10T09:51:26.429Z,2.70
2018-05-10T09:53:54.069Z,2.70
2018-05-10T09:56:22.402Z,3.73
2018-05-10T09:58:50.166Z,2.73
2018-05-10T10:01:17.874Z,2.20
2018-05-10T10:03:45.936Z,3.50
2018-05-10T10:06:13.662Z,2.53
2018-05-10T10:08:41.262Z,2.57
2018-05-10T10:11:08.884Z,2.97
2018-05-10T10:13:36.473Z,3.03
2018-05-10T10:16:04.115Z,3.03
2018-05-10T10:18:31.704Z,2.53
2018-05-10T10:20:59.287Z,2.60
2018-05-10T10:23:26.895Z,2.87
2018-05-10T10:25:54.494Z,3.30
2018-05-10T10:28:22.110Z,2.87
2018-05-10T10:30:49.765Z,2.40
2018-05-10T10:33:17.770Z,2.30
2018-05-10T10:35:45.355Z,2.90
2018-05-10T10:38:13.011Z,2.77
2018-05-10T10:40:40.632Z,2.60
2018-05-10T10:43:08.231Z,2.40
2018-05-10T10:45:35.890Z,2.70
2018-05-10T10:48:03.477Z,3.17
2018-05-10T10:50:31.446Z,2.80
2018-05-10T10:52:59.053Z,2.70
2018-05-10T10:55:26.646Z,2.57
2018-05-10T10:57:54.262Z,3.00
2018-05-10T11:00:22.086Z,2.47
2018-05-10T11:02:49.699Z,2.60
2018-05-10T11:05:17.313Z,2.60
2018-05-10T11:07:45.051Z,2.57
2018-05-10T11:10:13.552Z,2.67
2018-05-10T11:12:41.138Z,2.50
2018-05-10T11:15:08.818Z,2.60
2018-05-10T11:17:36.369Z,2.77
2018-05-10T11:20:04.008Z,2.60
2018-05-10T11:22:31.692Z,2.70
2018-05-10T11:24:59.288Z,1.93
2018-05-10T11:27:26.928Z,2.20
2018-05-10T11:29:54.523Z,2.90
2018-05-10T11:32:22.098Z,2.90
2018-05-10T11:34:49.729Z,4.20
2018-05-10T11:37:17.348Z,5.07
2018-05-10T11:39:44.974Z,5.87
2018-05-10T11:42:12.591Z,6.80
2018-05-10T11:44:40.187Z,6.23
2018-05-10T11:47:07.950Z,5.80
2018-05-10T11:49:35.544Z,6.63
2018-05-10T11:52:03.136Z,7.10
2018-05-10T11:54:30.757Z,6.93
2018-05-10T11:56:58.345Z,5.70
2018-05-10T11:59:25.959Z,6.40
2018-05-10T12:01:53.562Z,6.63
2018-05-10T12:04:21.202Z,6.40
2018-05-10T12:06:48.799Z,8.70
2018-05-10T12:09:16.386Z,6.57
2018-05-10T12:11:44.014Z,6.40
2018-05-10T12:14:11.982Z,7.30
2018-05-10T12:16:39.594Z,8.70
2018-05-10T12:19:07.201Z,11.37
2018-05-10T12:21:35.049Z,14.30
2018-05-10T12:24:02.659Z,11.37
2018-05-10T12:26:30.853Z,6.47
2018-05-10T12:28:58.503Z,7.70
2018-05-10T12:31:26.104Z,7.00
2018-05-10T12:33:53.713Z,6.03
2018-05-10T12:36:21.298Z,5.97
2018-05-10T12:38:48.915Z,7.27
2018-05-10T12:41:17.107Z,6.63
2018-05-10T12:43:44.956Z,6.47
2018-05-10T12:46:12.717Z,5.80
2018-05-10T12:48:40.402Z,5.30
2018-05-10T12:51:07.974Z,5.50
2018-05-10T12:53:35.580Z,4.23
2018-05-10T12:56:03.174Z,4.27
2018-05-10T12:58:30.794Z,3.97
2018-05-10T13:00:58.380Z,3.30
2018-05-10T13:03:26.001Z,2.60
2018-05-10T13:05:53.591Z,3.97
2018-05-10T13:08:21.267Z,3.17
2018-05-10T13:10:48.829Z,3.53
2018-05-10T13:13:16.544Z,3.27
2018-05-10T13:15:44.152Z,3.43
2018-05-10T13:18:11.746Z,2.50
2018-05-10T13:20:39.353Z,2.83
2018-05-10T13:23:06.958Z,3.00
2018-05-10T13:25:34.702Z,2.40
2018-05-10T13:28:02.630Z,2.20
2018-05-10T13:30:30.429Z,2.53
2018-05-10T13:32:58.143Z,2.03
2018-05-10T13:35:25.772Z,2.67
2018-05-10T13:37:53.382Z,2.37
2018-05-10T13:40:20.980Z,2.77
2018-05-10T13:42:48.593Z,2.53
2018-05-10T13:45:16.213Z,2.63
2018-05-10T13:47:43.818Z,2.60
2018-05-10T13:50:13.531Z,2.63
2018-05-10T13:52:41.877Z,2.30
2018-05-10T13:55:09.483Z,2.57
2018-05-10T13:57:37.078Z,2.57
2018-05-10T14:00:04.700Z,2.80
2018-05-10T14:02:32.288Z,2.43
2018-05-10T14:04:59.901Z,2.10
2018-05-10T14:07:27.512Z,2.10
2018-05-10T14:09:55.143Z,2.17
2018-05-10T14:12:22.725Z,2.00
2018-05-10T14:14:50.337Z,2.30
2018-05-10T14:17:17.959Z,2.20
2018-05-10T14:19:45.549Z,2.57
2018-05-10T14:22:13.158Z,2.30
2018-05-10T14:24:40.745Z,2.57
2018-05-10T14:27:08.946Z,3.00
2018-05-10T14:29:36.552Z,3.90
2018-05-10T14:32:04.135Z,3.27
2018-05-10T14:34:31.755Z,2.80
2018-05-10T14:36:59.342Z,3.30
2018-05-10T14:39:26.978Z,2.77
2018-05-10T14:41:55.016Z,2.43
2018-05-10T14:44:22.664Z,4.17
2018-05-10T14:46:50.325Z,2.70
2018-05-10T14:49:17.916Z,3.03
2018-05-10T14:51:45.533Z,2.80
2018-05-10T14:54:13.121Z,2.73
2018-05-10T14:56:40.730Z,2.80
2018-05-10T14:59:08.315Z,4.40
2018-05-10T15:01:36.188Z,3.53
2018-05-10T15:04:03.783Z,4.23
2018-05-10T15:06:31.383Z,4.30
2018-05-10T15:08:59.104Z,4.07
2018-05-10T15:11:26.704Z,4.00
2018-05-10T15:13:54.364Z,4.30
2018-05-10T15:16:22.072Z,4.53
2018-05-10T15:18:49.730Z,5.90
2018-05-10T15:21:17.366Z,5.40
2018-05-10T15:23:45.073Z,4.87
2018-05-10T15:26:12.602Z,5.00
2018-05-10T15:28:40.204Z,5.33
2018-05-10T15:31:07.910Z,4.30
2018-05-10T15:33:35.503Z,5.63
2018-05-10T15:36:03.327Z,3.93
2018-05-10T15:38:30.935Z,4.80
2018-05-10T15:40:58.527Z,4.73
2018-05-10T15:43:26.146Z,5.70
2018-05-10T15:45:53.761Z,4.93
2018-05-10T15:48:21.688Z,4.67
2018-05-10T15:50:49.349Z,4.33
2018-05-10T15:53:16.947Z,5.00
2018-05-10T15:55:47.009Z,6.93
2018-05-10T15:58:14.602Z,7.80
2018-05-10T16:00:42.225Z,8.53
2018-05-10T16:03:09.820Z,7.67
2018-05-10T16:05:37.679Z,5.93
2018-05-10T16:08:05.267Z,5.80
2018-05-10T16:10:32.863Z,5.83
2018-05-10T16:13:00.504Z,6.30
2018-05-10T16:15:28.105Z,5.83
2018-05-10T16:17:56.535Z,5.70
2018-05-10T16:20:24.127Z,5.53
2018-05-10T16:22:51.744Z,5.33
2018-05-10T16:25:19.341Z,6.50
2018-05-10T16:27:47.146Z,6.07
2018-05-10T16:30:14.747Z,5.70
2018-05-10T16:32:42.330Z,5.80
2018-05-10T16:35:09.947Z,6.33
2018-05-10T16:37:37.535Z,6.47
2018-05-10T16:40:05.385Z,6.60
2018-05-10T16:42:32.970Z,6.90
2018-05-10T16:45:01.198Z,6.60
2018-05-10T16:47:28.802Z,6.50
2018-05-10T16:49:56.415Z,8.40
2018-05-10T16:52:24.023Z,6.40
2018-05-10T16:54:51.622Z,7.23
2018-05-10T16:57:19.239Z,6.87
2018-05-10T16:59:46.839Z,8.20
2018-05-10T17:02:14.496Z,7.00
2018-05-10T17:04:42.098Z,8.10
2018-05-10T17:07:09.724Z,8.20
2018-05-10T17:09:37.342Z,7.23
2018-05-10T17:12:04.936Z,6.80
2018-05-10T17:14:32.577Z,7.97
2018-05-10T17:17:00.161Z,8.03
2018-05-10T17:19:27.970Z,7.37
2018-05-10T17:21:55.577Z,8.07
2018-05-10T17:24:23.177Z,8.53
2018-05-10T17:26:50.800Z,8.40
2018-05-10T17:29:18.395Z,9.43
2018-05-10T17:31:46.013Z,9.30
2018-05-10T17:34:13.613Z,10.07
2018-05-10T17:36:41.625Z,11.37
2018-05-10T17:39:09.320Z,10.20
2018-05-10T17:41:37.044Z,10.67
2018-05-10T17:44:04.609Z,12.07
2018-05-10T17:46:32.204Z,11.43
2018-05-10T17:48:59.876Z,11.53
2018-05-10T17:51:27.484Z,11.30
2018-05-10T17:53:55.351Z,11.20
2018-05-10T17:56:22.958Z,13.60
2018-05-10T17:58:50.549Z,11.97
2018-05-10T18:01:18.204Z,12.80
2018-05-10T18:03:45.803Z,12.20
2018-05-10T18:06:13.422Z,13.23
2018-05-10T18:08:41.024Z,13.27
2018-05-10T18:11:08.849Z,13.73
2018-05-10T18:13:36.549Z,15.37
2018-05-10T18:16:04.068Z,17.10
2018-05-10T18:18:31.687Z,15.93
2018-05-10T18:20:59.278Z,16.30
2018-05-10T18:23:26.980Z,18.37
2018-05-10T18:25:54.515Z,18.53
2018-05-10T18:28:22.151Z,17.03
2018-05-10T18:30:49.748Z,18.20
2018-05-10T18:33:17.543Z,20.50
2018-05-10T18:35:45.095Z,22.00
2018-05-10T18:38:12.769Z,21.03
2018-05-10T18:40:40.392Z,21.83
2018-05-10T18:43:07.994Z,22.97
2018-05-10T18:45:35.761Z,22.70
2018-05-10T18:48:03.358Z,22.07
2018-05-10T18:50:30.980Z,21.03
2018-05-10T18:52:58.601Z,24.47
2018-05-10T18:55:26.306Z,23.90
2018-05-10T18:57:54.319Z,21.47
2018-05-10T19:00:22.130Z,23.27
2018-05-10T19:02:49.730Z,23.30
2018-05-10T19:05:17.331Z,24.70
2018-05-10T19:07:45.032Z,25.03
2018-05-10T19:10:12.917Z,26.30
2018-05-10T19:12:40.544Z,24.97
2018-05-10T19:15:08.166Z,28.03
2018-05-10T19:17:35.788Z,28.73
2018-05-10T19:20:03.395Z,29.90
2018-05-10T19:22:31.047Z,28.57
2018-05-10T19:24:58.655Z,29.30
2018-05-10T19:27:26.301Z,28.93
2018-05-10T19:29:53.932Z,29.30
2018-05-10T19:32:21.526Z,29.87
2018-05-10T19:34:49.219Z,30.93
2018-05-10T19:37:16.907Z,28.10
2018-05-10T19:39:44.640Z,28.70
2018-05-10T19:42:12.242Z,26.80
2018-05-10T19:44:39.839Z,29.60
2018-05-10T19:47:07.464Z,25.77
2018-05-10T19:49:35.078Z,28.87
2018-05-10T19:52:02.706Z,27.40
2018-05-10T19:54:30.300Z,26.70
2018-05-10T19:56:58.224Z,26.20
2018-05-10T19:59:25.842Z,25.40
2018-05-10T20:01:53.503Z,23.97
2018-05-10T20:04:21.122Z,24.33
2018-05-10T20:06:48.722Z,25.57
2018-05-10T20:09:16.346Z,23.80
2018-05-10T20:11:43.947Z,24.10
2018-05-10T20:14:11.596Z,23.60
2018-05-10T20:16:39.194Z,24.80
2018-05-10T20:19:06.784Z,23.30
2018-05-10T20:21:34.463Z,22.90
2018-05-10T20:24:02.102Z,25.57
2018-05-10T20:26:29.723Z,21.87
2018-05-10T20:28:57.331Z,20.17
2018-05-10T20:31:25.145Z,15.90
2018-05-10T20:33:52.742Z,18.00
2018-05-10T20:36:20.348Z,20.07
2018-05-10T20:38:47.962Z,19.10
2018-05-10T20:41:15.556Z,19.97
2018-05-10T20:43:43.371Z,18.40
2018-05-10T20:46:11.003Z,18.60
2018-05-10T20:48:38.614Z,19.07
2018-05-10T20:51:06.230Z,17.23
2018-05-10T20:53:33.829Z,17.07
2018-05-10T20:56:01.507Z,18.20
2018-05-10T20:58:29.080Z,15.27
2018-05-10T21:00:56.688Z,15.77
2018-05-10T21:03:24.306Z,17.03
2018-05-10T21:05:51.899Z,17.00
2018-05-10T21:08:19.536Z,15.80
2018-05-10T21:10:47.146Z,16.07
2018-05-10T21:13:14.799Z,16.50
2018-05-10T21:15:42.391Z,13.80
2018-05-10T21:18:10.233Z,16.37
2018-05-10T21:20:37.839Z,13.80
2018-05-10T21:23:05.448Z,13.40
2018-05-10T21:25:33.077Z,13.57
2018-05-10T21:28:00.678Z,14.80
2018-05-10T21:30:28.302Z,14.00
2018-05-10T21:32:55.895Z,12.80
2018-05-10T21:35:23.655Z,12.60
2018-05-10T21:37:51.252Z,13.50
2018-05-10T21:40:18.854Z,13.67
2018-05-10T21:42:46.488Z,11.90
2018-05-10T21:45:14.098Z,13.30
2018-05-10T21:47:41.719Z,13.17
2018-05-10T21:50:09.324Z,13.17
2018-05-10T21:52:36.946Z,12.80
2018-05-10T21:55:04.562Z,12.23
2018-05-10T21:57:32.214Z,11.70
2018-05-10T21:59:59.877Z,11.83
2018-05-10T22:02:27.498Z,12.20
2018-05-10T22:04:55.120Z,13.00
2018-05-10T22:07:22.712Z,13.40
2018-05-10T22:09:50.338Z,11.90
2018-05-10T22:12:17.955Z,14.17
2018-05-10T22:14:45.598Z,11.53
2018-05-10T22:17:13.192Z,12.23
2018-05-10T22:19:40.782Z,13.67
2018-05-10T22:22:08.403Z,12.57
2018-05-10T22:24:36.057Z,13.77
2018-05-10T22:27:03.668Z,11.20
2018-05-10T22:29:31.288Z,13.40
2018-05-10T22:31:59.177Z,13.53
2018-05-10T22:34:26.773Z,12.73
2018-05-10T22:36:54.378Z,13.97
2018-05-10T22:39:22.002Z,15.30
2018-05-10T22:41:49.604Z,14.33
2018-05-10T22:44:17.252Z,15.70
2018-05-10T22:46:44.853Z,15.63
2018-05-10T22:49:12.486Z,15.60
2018-05-10T22:51:40.126Z,14.37
2018-05-10T22:54:07.738Z,15.30
2018-05-10T22:56:35.362Z,16.90
2018-05-10T22:59:02.964Z,15.33
2018-05-10T23:01:30.618Z,16.43
2018-05-10T23:03:58.227Z,18.30
2018-05-10T23:06:25.857Z,17.30
2018-05-10T23:08:53.474Z,16.30
2018-05-10T23:11:21.072Z,15.50
2018-05-10T23:13:48.735Z,18.47
2018-05-10T23:16:16.354Z,16.53
2018-05-10T23:18:43.978Z,15.70
2018-05-10T23:21:11.569Z,14.33
2018-05-10T23:23:39.170Z,15.70
2018-05-10T23:26:06.813Z,15.63
2018-05-10T23:28:34.402Z,16.13
2018-05-10T23:31:02.023Z,16.33
2018-05-10T23:33:29.623Z,16.57
2018-05-10T23:35:57.223Z,18.03
2018-05-10T23:38:24.850Z,17.50
2018-05-10T23:40:52.444Z,16.87
2018-05-10T23:43:20.067Z,19.00
2018-05-10T23:45:47.671Z,18.50
2018-05-10T23:48:15.266Z,19.37
2018-05-10T23:50:42.886Z,18.07
2018-05-10T23:53:10.479Z,20.57
2018-05-10T23:55:38.289Z,18.37
2018-05-10T23:58:05.948Z,20.60
